createdAt,value
2017-04-11T00:00:45.067Z,9.80
2017-04-11T00:01:45.475Z,9.80
2017-04-11T00:02:45.846Z,9.80
2017-04-11T00:03:45.403Z,9.80
2017-04-11T00:04:45.731Z,9.80
2017-04-11T00:05:46.055Z,9.70
2017-04-11T00:06:47.135Z,9.70
2017-04-11T00:07:46.668Z,9.80
2017-04-11T00:08:47.000Z,9.70
2017-04-11T00:09:46.622Z,9.80
2017-04-11T00:10:46.163Z,9.80
2017-04-11T00:11:46.871Z,9.70
2017-04-11T00:12:46.427Z,9.70
2017-04-11T00:13:46.051Z,9.70
2017-04-11T00:14:45.839Z,9.70
2017-04-11T00:15:45.392Z,9.70
2017-04-11T00:16:45.678Z,9.70
2017-04-11T00:17:45.211Z,9.60
2017-04-11T00:18:44.755Z,9.60
2017-04-11T00:19:44.376Z,9.60
2017-04-11T00:20:44.340Z,9.60
2017-04-11T00:21:44.215Z,9.50
2017-04-11T00:22:43.789Z,9.50
2017-04-11T00:23:43.503Z,9.50
2017-04-11T00:24:43.826Z,9.40
2017-04-11T00:25:43.783Z,9.40
2017-04-11T00:26:43.349Z,9.40
2017-04-11T00:27:43.039Z,9.40
2017-04-11T00:28:42.595Z,9.40
2017-04-11T00:29:42.992Z,9.40
2017-04-11T00:30:43.283Z,9.30
2017-04-11T00:31:42.864Z,9.30
2017-04-11T00:32:42.526Z,9.30
2017-04-11T00:33:42.930Z,9.20
2017-04-11T00:34:42.559Z,9.20
2017-04-11T00:35:42.892Z,9.20
2017-04-11T00:36:42.643Z,9.20
2017-04-11T00:37:42.207Z,9.20
2017-04-11T00:38:41.791Z,9.20
2017-04-11T00:39:41.563Z,9.20
2017-04-11T00:40:42.069Z,9.20
2017-04-11T00:41:41.623Z,9.30
2017-04-11T00:42:41.305Z,9.30
2017-04-11T00:43:40.887Z,9.20
2017-04-11T00:44:41.275Z,9.10
2017-04-11T00:45:40.820Z,9.20
2017-04-11T00:46:40.376Z,9.20
2017-04-11T00:48:40.283Z,9.20
2017-04-11T00:49:39.815Z,9.10
2017-04-11T00:50:39.388Z,9.20
2017-04-11T00:51:39.754Z,9.00
2017-04-11T00:52:39.307Z,9.10
2017-04-11T00:53:39.023Z,9.10
2017-04-11T00:54:38.565Z,9.10
2017-04-11T00:55:38.115Z,9.10
2017-04-11T00:56:38.002Z,9.10
2017-04-11T00:57:38.276Z,9.00
2017-04-11T00:58:38.507Z,9.00
2017-04-11T00:59:38.069Z,9.00
2017-04-11T01:00:37.626Z,9.00
2017-04-11T01:01:38.022Z,9.00
2017-04-11T01:02:37.829Z,9.00
2017-04-11T01:03:37.389Z,9.00
2017-04-11T01:04:36.935Z,9.00
2017-04-11T01:05:37.264Z,8.90
2017-04-11T01:06:37.607Z,8.90
2017-04-11T01:07:37.533Z,8.90
2017-04-11T01:08:37.099Z,8.90
2017-04-11T01:09:36.760Z,8.90
2017-04-11T01:10:37.040Z,8.90
2017-04-11T01:11:36.595Z,8.80
2017-04-11T01:12:36.284Z,8.80
2017-04-11T01:13:36.788Z,8.70
2017-04-11T01:14:37.060Z,8.70
2017-04-11T01:15:36.688Z,8.70
2017-04-11T01:16:36.233Z,8.70
2017-04-11T01:17:35.885Z,8.70
2017-04-11T01:18:36.199Z,8.70
2017-04-11T01:19:35.739Z,8.70
2017-04-11T01:20:35.280Z,8.70
2017-04-11T01:21:34.960Z,8.70
2017-04-11T01:22:34.507Z,8.60
2017-04-11T01:23:34.808Z,8.50
2017-04-11T01:24:34.400Z,8.60
2017-04-11T01:25:33.979Z,8.60
2017-04-11T01:26:33.555Z,8.60
2017-04-11T01:27:33.591Z,8.60
2017-04-11T01:28:33.135Z,8.60
2017-04-11T01:29:33.439Z,8.50
2017-04-11T01:30:33.735Z,8.50
2017-04-11T01:31:33.352Z,8.50
2017-04-11T01:32:33.834Z,8.40
2017-04-11T01:33:33.419Z,8.50
2017-04-11T01:34:33.008Z,8.50
2017-04-11T01:35:32.830Z,8.50
2017-04-11T01:36:33.019Z,8.40
2017-04-11T01:37:32.567Z,8.40
2017-04-11T01:38:32.967Z,8.40
2017-04-11T01:39:32.549Z,8.40
2017-04-11T01:40:32.231Z,8.40
2017-04-11T01:41:32.506Z,8.40
2017-04-11T01:42:32.839Z,8.40
2017-04-11T01:43:32.440Z,8.40
2017-04-11T01:44:32.105Z,8.40
2017-04-11T01:46:31.436Z,8.40
2017-04-11T01:47:30.979Z,8.40
2017-04-11T01:48:30.509Z,8.40
2017-04-11T01:49:30.995Z,8.40
2017-04-11T01:50:31.507Z,8.30
2017-04-11T01:51:31.083Z,8.40
2017-04-11T01:52:30.642Z,8.40
2017-04-11T01:53:31.160Z,8.30
2017-04-11T01:54:31.447Z,8.30
2017-04-11T01:55:31.134Z,8.30
2017-04-11T01:56:30.668Z,8.30
2017-04-11T01:57:30.977Z,8.30
2017-04-11T01:58:31.603Z,8.30
2017-04-11T01:59:31.878Z,8.30
2017-04-11T02:00:31.431Z,8.40
2017-04-11T02:01:31.036Z,8.40
2017-04-11T02:02:30.584Z,8.40
2017-04-11T02:03:30.252Z,8.40
2017-04-11T02:04:29.835Z,8.30
2017-04-11T02:05:29.436Z,8.30
2017-04-11T02:06:29.126Z,8.30
2017-04-11T02:07:29.019Z,8.30
2017-04-11T02:08:28.547Z,8.30
2017-04-11T02:09:28.120Z,8.30
2017-04-11T02:10:28.198Z,8.30
2017-04-11T02:11:28.888Z,8.20
2017-04-11T02:12:29.142Z,8.30
2017-04-11T02:13:29.448Z,8.20
2017-04-11T02:14:29.744Z,8.20
2017-04-11T02:15:29.711Z,8.30
2017-04-11T02:16:29.255Z,8.30
2017-04-11T02:17:28.819Z,8.30
2017-04-11T02:18:29.132Z,8.30
2017-04-11T02:19:28.748Z,8.30
2017-04-11T02:20:28.311Z,8.30
2017-04-11T02:21:28.007Z,8.40
2017-04-11T02:22:27.582Z,8.30
2017-04-11T02:24:27.643Z,8.30
2017-04-11T02:25:27.244Z,8.30
2017-04-11T02:26:26.803Z,8.30
2017-04-11T02:27:26.358Z,8.30
2017-04-11T02:28:25.939Z,8.30
2017-04-11T02:29:25.583Z,8.30
2017-04-11T02:30:25.930Z,8.30
2017-04-11T02:31:25.467Z,8.30
2017-04-11T02:32:25.092Z,8.30
2017-04-11T02:34:24.979Z,8.30
2017-04-11T02:35:24.900Z,8.30
2017-04-11T02:36:24.471Z,8.30
2017-04-11T02:37:24.187Z,8.30
2017-04-11T02:38:23.764Z,8.40
2017-04-11T02:39:23.295Z,8.40
2017-04-11T02:40:23.615Z,8.40
2017-04-11T02:41:23.923Z,8.40
2017-04-11T02:42:24.155Z,8.40
2017-04-11T02:43:24.459Z,8.30
2017-04-11T02:44:25.163Z,8.30
2017-04-11T02:45:24.807Z,8.40
2017-04-11T02:46:24.690Z,8.40
2017-04-11T02:47:25.295Z,8.40
2017-04-11T02:48:24.839Z,8.40
2017-04-11T02:49:24.542Z,8.40
2017-04-11T02:50:24.107Z,8.40
2017-04-11T02:51:24.558Z,8.30
2017-04-11T02:52:24.168Z,8.30
2017-04-11T02:53:23.967Z,8.30
2017-04-11T02:54:23.552Z,8.30
2017-04-11T02:55:23.088Z,8.30
2017-04-11T02:56:22.627Z,8.30
2017-04-11T02:57:22.905Z,8.20
2017-04-11T02:58:22.635Z,8.30
2017-04-11T02:59:23.035Z,8.20
2017-04-11T03:00:23.267Z,8.20
2017-04-11T03:01:23.894Z,8.20
2017-04-11T03:02:23.476Z,8.20
2017-04-11T03:03:23.871Z,8.10
2017-04-11T03:04:23.468Z,8.20
2017-04-11T03:05:23.446Z,8.10
2017-04-11T03:06:23.141Z,8.10
2017-04-11T03:07:22.672Z,8.10
2017-04-11T03:08:22.236Z,8.10
2017-04-11T03:09:21.809Z,8.10
2017-04-11T03:10:22.392Z,8.10
2017-04-11T03:12:22.596Z,8.00
2017-04-11T03:13:22.140Z,8.00
2017-04-11T03:14:22.886Z,8.00
2017-04-11T03:15:22.462Z,8.00
2017-04-11T03:16:22.750Z,7.90
2017-04-11T03:17:22.563Z,8.00
2017-04-11T03:18:22.901Z,7.90
2017-04-11T03:19:22.477Z,7.90
2017-04-11T03:20:23.311Z,7.90
2017-04-11T03:21:23.615Z,7.90
2017-04-11T03:22:23.927Z,7.90
2017-04-11T03:23:24.385Z,7.80
2017-04-11T03:24:23.963Z,7.90
2017-04-11T03:25:23.516Z,7.90
2017-04-11T03:26:23.082Z,7.90
2017-04-11T03:27:24.062Z,7.80
2017-04-11T03:28:24.335Z,7.80
2017-04-11T03:29:23.983Z,7.90
2017-04-11T03:30:23.530Z,7.80
2017-04-11T03:31:23.124Z,7.80
2017-04-11T03:32:22.671Z,7.80
2017-04-11T03:33:23.115Z,7.70
2017-04-11T03:35:23.167Z,7.80
2017-04-11T03:36:22.743Z,7.80
2017-04-11T03:37:22.415Z,7.70
2017-04-11T03:38:22.816Z,7.70
2017-04-11T03:39:22.428Z,7.70
2017-04-11T03:40:22.708Z,7.70
2017-04-11T03:41:22.271Z,7.70
2017-04-11T03:42:21.803Z,7.70
2017-04-11T03:43:21.976Z,7.70
2017-04-11T03:44:21.581Z,7.60
2017-04-11T03:45:21.915Z,7.60
2017-04-11T03:46:21.481Z,7.60
2017-04-11T03:47:21.028Z,7.60
2017-04-11T03:48:21.443Z,7.50
2017-04-11T03:49:21.956Z,7.50
2017-04-11T03:50:21.623Z,7.50
2017-04-11T03:51:21.142Z,7.50
2017-04-11T03:52:20.683Z,7.50
2017-04-11T03:53:20.950Z,7.40
2017-04-11T03:54:20.728Z,7.40
2017-04-11T03:55:21.822Z,7.40
2017-04-11T03:56:22.247Z,7.30
2017-04-11T03:57:22.516Z,7.30
2017-04-11T03:58:22.198Z,7.30
2017-04-11T03:59:21.762Z,7.30
2017-04-11T04:00:22.178Z,7.20
2017-04-11T04:01:22.391Z,7.30
2017-04-11T04:02:22.725Z,7.20
2017-04-11T04:03:22.309Z,7.20
2017-04-11T04:04:21.951Z,7.20
2017-04-11T04:05:21.863Z,7.20
2017-04-11T04:06:21.408Z,7.20
2017-04-11T04:07:20.939Z,7.10
2017-04-11T04:08:20.491Z,7.20
2017-04-11T04:09:20.810Z,7.10
2017-04-11T04:10:21.090Z,7.10
2017-04-11T04:11:20.627Z,7.10
2017-04-11T04:12:21.014Z,7.00
2017-04-11T04:13:20.554Z,7.00
2017-04-11T04:14:20.111Z,7.00
2017-04-11T04:15:20.427Z,6.90
2017-04-11T04:16:20.854Z,6.90
2017-04-11T04:17:21.167Z,6.80
2017-04-11T04:18:21.515Z,6.90
2017-04-11T04:19:21.055Z,6.90
2017-04-11T04:20:21.091Z,6.90
2017-04-11T04:21:20.632Z,6.90
2017-04-11T04:22:20.540Z,6.90
2017-04-11T04:23:20.058Z,6.90
2017-04-11T04:24:19.817Z,6.90
2017-04-11T04:25:19.363Z,6.90
2017-04-11T04:26:18.948Z,6.90
2017-04-11T04:27:18.554Z,6.80
2017-04-11T04:28:18.091Z,6.80
2017-04-11T04:29:18.435Z,6.80
2017-04-11T04:30:18.023Z,6.80
2017-04-11T04:31:17.667Z,6.90
2017-04-11T04:32:17.832Z,6.90
2017-04-11T04:33:17.540Z,6.90
2017-04-11T04:34:17.086Z,6.80
2017-04-11T04:35:17.371Z,6.80
2017-04-11T04:36:17.091Z,6.80
2017-04-11T04:37:16.783Z,6.80
2017-04-11T04:38:16.363Z,6.80
2017-04-11T04:39:16.275Z,6.80
2017-04-11T04:40:15.819Z,6.80
2017-04-11T04:41:16.539Z,6.70
2017-04-11T04:42:16.842Z,6.70
2017-04-11T04:43:16.410Z,6.80
2017-04-11T04:44:15.944Z,6.80
2017-04-11T04:45:16.240Z,6.70
2017-04-11T04:46:15.967Z,6.80
2017-04-11T04:47:16.239Z,6.70
2017-04-11T04:48:15.991Z,6.70
2017-04-11T04:49:15.704Z,6.70
2017-04-11T04:50:15.246Z,6.80
2017-04-11T04:51:14.858Z,6.70
2017-04-11T04:53:14.199Z,6.60
2017-04-11T04:54:13.979Z,6.60
2017-04-11T04:55:14.263Z,6.60
2017-04-11T04:57:13.768Z,6.60
2017-04-11T04:58:13.335Z,6.60
2017-04-11T04:59:13.021Z,6.50
2017-04-11T05:00:12.983Z,6.50
2017-04-11T05:01:13.663Z,6.40
2017-04-11T05:02:13.256Z,6.50
2017-04-11T05:03:12.976Z,6.50
2017-04-11T05:04:12.542Z,6.50
2017-04-11T05:05:12.096Z,6.60
2017-04-11T05:06:12.451Z,6.60
2017-04-11T05:07:12.001Z,6.70
2017-04-11T05:08:11.585Z,6.80
2017-04-11T05:09:11.379Z,6.80
2017-04-11T05:10:10.950Z,6.80
2017-04-11T05:11:10.520Z,6.80
2017-04-11T05:12:11.092Z,6.80
2017-04-11T05:13:10.652Z,6.80
2017-04-11T05:14:10.221Z,6.80
2017-04-11T05:15:10.487Z,6.70
2017-04-11T05:16:09.999Z,6.70
2017-04-11T05:17:09.540Z,6.60
2017-04-11T05:18:09.854Z,6.50
2017-04-11T05:19:09.437Z,6.50
2017-04-11T05:20:09.744Z,6.50
2017-04-11T05:21:09.412Z,6.60
2017-04-11T05:22:08.961Z,6.70
2017-04-11T05:23:09.441Z,6.70
2017-04-11T05:24:08.999Z,6.80
2017-04-11T05:25:08.624Z,6.80
2017-04-11T05:26:08.213Z,6.90
2017-04-11T05:27:09.086Z,6.90
2017-04-11T05:28:10.014Z,7.00
2017-04-11T05:29:11.182Z,7.00
2017-04-11T05:30:12.327Z,7.00
2017-04-11T05:31:13.398Z,7.00
2017-04-11T05:32:14.693Z,7.10
2017-04-11T05:33:16.466Z,7.10
2017-04-11T05:34:17.984Z,7.00
2017-04-11T05:35:19.051Z,7.10
2017-04-11T05:36:20.511Z,7.10
2017-04-11T05:37:20.225Z,7.10
2017-04-11T05:38:19.803Z,7.20
2017-04-11T05:39:19.400Z,7.20
2017-04-11T05:40:18.946Z,7.30
2017-04-11T05:41:18.514Z,7.30
2017-04-11T05:42:18.080Z,7.30
2017-04-11T05:43:17.634Z,7.40
2017-04-11T05:44:17.586Z,7.50
2017-04-11T05:45:17.225Z,7.60
2017-04-11T05:46:16.811Z,7.50
2017-04-11T05:47:17.071Z,7.60
2017-04-11T05:48:16.632Z,7.60
2017-04-11T05:49:16.314Z,7.70
2017-04-11T05:50:15.863Z,7.70
2017-04-11T05:51:15.430Z,7.70
2017-04-11T05:52:14.946Z,7.80
2017-04-11T05:53:14.494Z,7.80
2017-04-11T05:54:14.112Z,7.80
2017-04-11T05:55:13.766Z,7.70
2017-04-11T05:56:13.373Z,7.80
2017-04-11T05:57:12.952Z,7.90
2017-04-11T05:58:12.608Z,7.90
2017-04-11T05:59:12.155Z,7.90
2017-04-11T06:00:12.158Z,7.90
2017-04-11T06:01:11.726Z,7.90
2017-04-11T06:02:11.387Z,7.90
2017-04-11T06:03:10.939Z,8.00
2017-04-11T06:04:10.484Z,8.10
2017-04-11T06:05:10.792Z,8.10
2017-04-11T06:06:10.397Z,8.10
2017-04-11T06:07:10.144Z,8.10
2017-04-11T06:08:09.688Z,8.20
2017-04-11T06:09:09.235Z,8.30
2017-04-11T06:10:08.795Z,8.40
2017-04-11T06:11:08.384Z,8.40
2017-04-11T06:12:07.929Z,8.40
2017-04-11T06:13:07.501Z,8.40
2017-04-11T06:14:07.028Z,8.40
2017-04-11T06:15:07.479Z,8.40
2017-04-11T06:16:07.005Z,8.30
2017-04-11T06:17:06.888Z,8.30
2017-04-11T06:18:06.551Z,8.40
2017-04-11T06:19:06.132Z,8.30
2017-04-11T06:20:06.185Z,8.30
2017-04-11T06:21:05.719Z,8.40
2017-04-11T06:22:05.264Z,8.30
2017-04-11T06:23:04.884Z,8.30
2017-04-11T06:24:04.590Z,8.30
2017-04-11T06:25:04.168Z,8.50
2017-04-11T06:26:03.832Z,8.50
2017-04-11T06:27:03.356Z,8.40
2017-04-11T06:28:02.990Z,8.50
2017-04-11T06:29:03.799Z,8.50
2017-04-11T06:30:03.366Z,8.50
2017-04-11T06:31:02.891Z,8.60
2017-04-11T06:32:02.469Z,8.70
2017-04-11T06:33:02.565Z,8.70
2017-04-11T06:34:02.168Z,8.70
2017-04-11T06:35:01.808Z,8.60
2017-04-11T06:36:01.399Z,8.40
2017-04-11T06:37:00.938Z,8.40
2017-04-11T06:38:00.591Z,8.50
2017-04-11T06:39:00.548Z,8.50
2017-04-11T06:40:00.739Z,8.50
2017-04-11T06:41:00.312Z,8.50
2017-04-11T06:42:00.537Z,8.60
2017-04-11T06:43:00.120Z,8.50
2017-04-11T06:43:59.696Z,8.60
2017-04-11T06:44:59.305Z,8.60
2017-04-11T06:45:58.879Z,8.60
2017-04-11T06:46:58.434Z,8.50
2017-04-11T06:47:57.959Z,8.60
2017-04-11T06:48:57.519Z,8.60
2017-04-11T06:49:57.095Z,8.60
2017-04-11T06:50:56.708Z,8.70
2017-04-11T06:51:56.313Z,8.60
2017-04-11T06:52:55.884Z,8.50
2017-04-11T06:53:55.516Z,8.50
2017-04-11T06:54:55.055Z,8.70
2017-04-11T06:55:54.711Z,8.60
2017-04-11T06:56:54.584Z,8.60
2017-04-11T06:57:54.166Z,8.60
2017-04-11T06:58:53.685Z,8.70
2017-04-11T06:59:53.329Z,8.60
2017-04-11T07:00:52.901Z,8.60
2017-04-11T07:01:52.416Z,8.60
2017-04-11T07:02:55.836Z,8.60
2017-04-11T07:03:55.418Z,8.60
2017-04-11T07:04:55.823Z,8.70
2017-04-11T07:05:56.048Z,8.80
2017-04-11T07:06:55.787Z,8.80
2017-04-11T07:07:55.415Z,8.90
2017-04-11T07:08:54.985Z,8.80
2017-04-11T07:09:54.579Z,8.90
2017-04-11T07:10:54.141Z,8.90
2017-04-11T07:11:53.693Z,8.90
2017-04-11T07:12:53.309Z,8.90
2017-04-11T07:13:52.878Z,9.10
2017-04-11T07:14:52.484Z,9.20
2017-04-11T07:15:52.161Z,9.30
2017-04-11T07:16:51.767Z,9.50
2017-04-11T07:17:52.290Z,9.40
2017-04-11T07:18:52.728Z,9.50
2017-04-11T07:19:53.406Z,9.40
2017-04-11T07:20:52.976Z,9.30
2017-04-11T07:21:53.282Z,9.30
2017-04-11T07:22:52.916Z,9.30
2017-04-11T07:23:52.448Z,9.30
2017-04-11T07:24:53.145Z,9.30
2017-04-11T07:25:52.911Z,9.20
2017-04-11T07:26:52.513Z,9.20
2017-04-11T07:27:52.084Z,9.20
2017-04-11T07:28:51.651Z,9.20
2017-04-11T07:30:50.996Z,9.20
2017-04-11T07:31:50.627Z,9.30
2017-04-11T07:32:50.907Z,9.30
2017-04-11T07:33:50.618Z,9.40
2017-04-11T07:34:50.202Z,9.40
2017-04-11T07:35:49.841Z,9.40
2017-04-11T07:36:49.533Z,9.50
2017-04-11T07:37:49.139Z,9.50
2017-04-11T07:38:48.730Z,9.50
2017-04-11T07:39:48.431Z,9.50
2017-04-11T07:40:47.985Z,9.70
2017-04-11T07:41:47.523Z,9.70
2017-04-11T07:42:47.087Z,9.60
2017-04-11T07:43:46.684Z,9.70
2017-04-11T07:44:46.231Z,9.70
2017-04-11T07:45:45.812Z,9.70
2017-04-11T07:46:45.339Z,9.80
2017-04-11T07:47:44.900Z,9.90
2017-04-11T07:48:44.620Z,10.00
2017-04-11T07:49:44.176Z,10.00
2017-04-11T07:50:43.828Z,10.10
2017-04-11T07:51:43.376Z,10.10
2017-04-11T07:52:42.926Z,10.10
2017-04-11T07:53:43.214Z,10.00
2017-04-11T07:54:42.831Z,9.90
2017-04-11T07:55:42.437Z,10.00
2017-04-11T07:56:42.122Z,9.90
2017-04-11T07:57:41.700Z,9.90
2017-04-11T07:58:41.300Z,9.90
2017-04-11T07:59:40.913Z,9.80
2017-04-11T08:00:40.483Z,9.80
2017-04-11T08:01:40.033Z,9.70
2017-04-11T08:02:39.975Z,9.70
2017-04-11T08:03:39.979Z,9.80
2017-04-11T08:04:39.479Z,9.80
2017-04-11T08:05:39.160Z,9.80
2017-04-11T08:06:38.729Z,9.80
2017-04-11T08:07:38.304Z,9.60
2017-04-11T08:08:37.991Z,9.70
2017-04-11T08:09:37.510Z,9.90
2017-04-11T08:10:37.073Z,9.90
2017-04-11T08:11:36.647Z,9.90
2017-04-11T08:12:36.356Z,10.00
2017-04-11T08:13:36.240Z,10.10
2017-04-11T08:14:36.027Z,10.30
2017-04-11T08:15:36.316Z,10.30
2017-04-11T08:16:35.908Z,10.30
2017-04-11T08:17:36.147Z,10.20
2017-04-11T08:18:36.500Z,10.10
2017-04-11T08:19:36.119Z,10.10
2017-04-11T08:20:35.668Z,10.10
2017-04-11T08:21:36.073Z,10.10
2017-04-11T08:22:36.716Z,10.00
2017-04-11T08:23:36.292Z,10.10
2017-04-11T08:25:35.620Z,10.00
2017-04-11T08:26:35.289Z,10.00
2017-04-11T08:27:35.609Z,10.00
2017-04-11T08:28:36.115Z,10.00
2017-04-11T08:29:36.544Z,9.90
2017-04-11T08:30:36.235Z,10.00
2017-04-11T08:31:35.766Z,10.10
2017-04-11T08:32:35.320Z,9.90
2017-04-11T08:33:34.877Z,10.00
2017-04-11T08:34:35.127Z,10.00
2017-04-11T08:35:34.778Z,10.10
2017-04-11T08:36:34.303Z,10.20
2017-04-11T08:37:33.899Z,10.00
2017-04-11T08:38:33.587Z,10.00
2017-04-11T08:39:33.171Z,10.00
2017-04-11T08:40:32.859Z,10.20
2017-04-11T08:41:32.813Z,10.10
2017-04-11T08:42:32.432Z,10.00
2017-04-11T08:43:32.004Z,10.00
2017-04-11T08:44:31.602Z,10.00
2017-04-11T08:45:31.267Z,10.10
2017-04-11T08:46:30.880Z,10.10
2017-04-11T08:47:30.423Z,10.10
2017-04-11T08:48:29.997Z,10.00
2017-04-11T08:49:29.543Z,10.00
2017-04-11T08:50:29.100Z,10.00
2017-04-11T08:51:28.668Z,10.20
2017-04-11T08:52:28.196Z,10.30
2017-04-11T08:53:27.749Z,10.20
2017-04-11T08:54:27.348Z,10.30
2017-04-11T08:55:27.940Z,10.30
2017-04-11T08:56:28.199Z,10.10
2017-04-11T08:57:27.782Z,10.00
2017-04-11T08:58:27.721Z,9.80
2017-04-11T08:59:27.312Z,9.70
2017-04-11T09:00:26.917Z,9.70
2017-04-11T09:01:26.495Z,9.70
2017-04-11T09:02:26.032Z,9.60
2017-04-11T09:03:26.388Z,9.50
2017-04-11T09:04:26.011Z,9.60
2017-04-11T09:05:25.532Z,9.60
2017-04-11T09:06:25.845Z,9.60
2017-04-11T09:07:25.491Z,9.70
2017-04-11T09:08:25.082Z,9.80
2017-04-11T09:09:24.747Z,9.70
2017-04-11T09:10:25.056Z,9.70
2017-04-11T09:11:24.585Z,9.90
2017-04-11T09:12:24.227Z,10.00
2017-04-11T09:13:23.999Z,10.10
2017-04-11T09:14:23.886Z,10.00
2017-04-11T09:15:24.288Z,10.20
2017-04-11T09:16:24.644Z,10.20
2017-04-11T09:17:24.250Z,10.30
2017-04-11T09:18:23.836Z,10.50
2017-04-11T09:19:23.662Z,10.60
2017-04-11T09:20:23.325Z,10.70
2017-04-11T09:21:23.579Z,11.00
2017-04-11T09:22:23.944Z,10.90
2017-04-11T09:23:23.471Z,10.90
2017-04-11T09:24:23.063Z,11.00
2017-04-11T09:25:22.733Z,11.00
2017-04-11T09:26:22.335Z,11.10
2017-04-11T09:27:21.892Z,11.20
2017-04-11T09:28:21.452Z,11.10
2017-04-11T09:29:21.084Z,11.20
2017-04-11T09:30:20.636Z,11.20
2017-04-11T09:31:20.252Z,11.30
2017-04-11T09:32:19.911Z,11.20
2017-04-11T09:33:19.444Z,10.90
2017-04-11T09:34:19.192Z,10.80
2017-04-11T09:35:18.744Z,10.80
2017-04-11T09:36:18.580Z,10.70
2017-04-11T09:37:18.127Z,10.60
2017-04-11T09:38:17.765Z,10.70
2017-04-11T09:39:17.337Z,10.90
2017-04-11T09:40:17.593Z,10.80
2017-04-11T09:41:17.130Z,10.80
2017-04-11T09:42:16.697Z,10.80
2017-04-11T09:43:16.275Z,10.60
2017-04-11T09:44:16.187Z,10.60
2017-04-11T09:45:15.790Z,10.60
2017-04-11T09:46:15.345Z,10.70
2017-04-11T09:47:14.898Z,10.60
2017-04-11T09:48:14.841Z,10.80
2017-04-11T09:49:14.875Z,10.70
2017-04-11T09:50:14.445Z,10.80
2017-04-11T09:51:14.712Z,10.70
2017-04-11T09:52:14.459Z,10.60
2017-04-11T09:53:14.036Z,10.50
2017-04-11T09:54:13.694Z,10.50
2017-04-11T09:55:13.351Z,10.50
2017-04-11T09:56:12.964Z,10.40
2017-04-11T09:57:12.500Z,10.40
2017-04-11T09:58:12.095Z,10.50
2017-04-11T09:59:11.800Z,10.30
2017-04-11T10:00:11.695Z,10.30
2017-04-11T10:01:11.288Z,10.30
2017-04-11T10:02:11.614Z,10.50
2017-04-11T10:03:11.880Z,10.70
2017-04-11T10:04:11.573Z,10.70
2017-04-11T10:05:11.467Z,10.80
2017-04-11T10:06:11.155Z,10.90
2017-04-11T10:07:11.465Z,11.00
2017-04-11T10:08:11.839Z,11.00
2017-04-11T10:09:11.796Z,11.10
2017-04-11T10:10:12.101Z,11.00
2017-04-11T10:11:13.280Z,11.00
2017-04-11T10:12:13.784Z,11.00
2017-04-11T10:13:13.639Z,10.90
2017-04-11T10:14:13.655Z,10.80
2017-04-11T10:15:14.165Z,10.50
2017-04-11T10:16:13.726Z,10.70
2017-04-11T10:17:14.150Z,10.70
2017-04-11T10:18:15.136Z,10.90
2017-04-11T10:19:15.506Z,11.00
2017-04-11T10:20:15.088Z,11.20
2017-04-11T10:21:14.669Z,11.40
2017-04-11T10:22:14.254Z,11.60
2017-04-11T10:23:14.568Z,11.90
2017-04-11T10:24:14.137Z,12.10
2017-04-11T10:25:14.425Z,12.10
2017-04-11T10:26:14.415Z,12.30
2017-04-11T10:27:14.053Z,12.40
2017-04-11T10:28:14.342Z,12.20
2017-04-11T10:29:13.961Z,12.20
2017-04-11T10:30:13.602Z,12.20
2017-04-11T10:31:14.124Z,12.20
2017-04-11T10:32:13.692Z,12.10
2017-04-11T10:33:14.011Z,12.20
2017-04-11T10:34:14.605Z,12.20
2017-04-11T10:35:14.152Z,12.20
2017-04-11T10:36:14.549Z,12.30
2017-04-11T10:37:14.929Z,12.00
2017-04-11T10:38:15.211Z,11.60
2017-04-11T10:39:14.949Z,11.30
2017-04-11T10:40:14.528Z,11.30
2017-04-11T10:41:14.072Z,11.40
2017-04-11T10:42:14.412Z,11.40
2017-04-11T10:43:13.963Z,11.40
2017-04-11T10:44:13.525Z,11.20
2017-04-11T10:45:13.103Z,11.30
2017-04-11T10:46:12.780Z,11.20
2017-04-11T10:47:13.065Z,11.10
2017-04-11T10:48:13.421Z,11.30
2017-04-11T10:49:13.001Z,11.50
2017-04-11T10:50:13.300Z,11.50
2017-04-11T10:51:13.485Z,11.40
2017-04-11T10:52:13.171Z,11.40
2017-04-11T10:53:12.828Z,11.60
2017-04-11T10:54:13.167Z,11.70
2017-04-11T10:55:13.868Z,11.90
2017-04-11T10:57:13.332Z,12.10
2017-04-11T10:58:13.007Z,12.00
2017-04-11T10:59:12.651Z,12.10
2017-04-11T11:00:12.199Z,12.10
2017-04-11T11:01:11.788Z,12.10
2017-04-11T11:02:11.737Z,12.10
2017-04-11T11:03:11.553Z,12.00
2017-04-11T11:04:11.116Z,12.20
2017-04-11T11:05:10.703Z,12.40
2017-04-11T11:06:10.387Z,12.60
2017-04-11T11:07:10.004Z,12.70
2017-04-11T11:08:10.404Z,12.70
2017-04-11T11:09:09.950Z,12.90
2017-04-11T11:10:09.751Z,13.10
2017-04-11T11:11:09.735Z,13.10
2017-04-11T11:12:09.286Z,13.20
2017-04-11T11:13:09.731Z,13.00
2017-04-11T11:14:09.613Z,13.00
2017-04-11T11:15:10.085Z,12.80
2017-04-11T11:16:09.654Z,12.70
2017-04-11T11:17:09.272Z,12.60
2017-04-11T11:18:08.848Z,12.50
2017-04-11T11:19:08.455Z,12.50
2017-04-11T11:20:08.620Z,12.40
2017-04-11T11:21:08.923Z,12.10
2017-04-11T11:22:08.537Z,12.10
2017-04-11T11:23:08.934Z,12.00
2017-04-11T11:24:08.512Z,12.10
2017-04-11T11:25:08.284Z,12.20
2017-04-11T11:26:07.928Z,12.30
2017-04-11T11:27:07.474Z,12.50
2017-04-11T11:28:07.861Z,12.40
2017-04-11T11:29:08.521Z,12.70
2017-04-11T11:30:08.119Z,12.90
2017-04-11T11:31:07.743Z,12.70
2017-04-11T11:32:07.416Z,12.60
2017-04-11T11:33:07.061Z,12.70
2017-04-11T11:34:06.654Z,12.60
2017-04-11T11:35:06.332Z,12.70
2017-04-11T11:36:05.971Z,12.60
2017-04-11T11:37:06.291Z,12.60
2017-04-11T11:38:06.708Z,12.50
2017-04-11T11:39:07.018Z,12.50
2017-04-11T11:40:07.751Z,12.50
2017-04-11T11:41:08.108Z,12.60
2017-04-11T11:42:07.736Z,12.60
2017-04-11T11:43:07.291Z,12.70
2017-04-11T11:44:06.999Z,12.80
2017-04-11T11:45:06.596Z,12.70
2017-04-11T11:46:06.268Z,12.70
2017-04-11T11:47:05.936Z,12.70
2017-04-11T11:48:06.205Z,12.70
2017-04-11T11:49:05.860Z,12.90
2017-04-11T11:50:06.249Z,13.10
2017-04-11T11:51:05.815Z,13.00
2017-04-11T11:52:05.767Z,13.10
2017-04-11T11:53:05.327Z,13.20
2017-04-11T11:54:04.933Z,13.00
2017-04-11T11:55:04.538Z,13.20
2017-04-11T11:56:04.291Z,13.40
2017-04-11T11:57:03.863Z,13.70
2017-04-11T11:58:03.420Z,13.70
2017-04-11T11:59:03.383Z,13.90
2017-04-11T12:00:03.301Z,14.00
2017-04-11T12:01:03.223Z,13.90
2017-04-11T12:02:02.796Z,13.90
2017-04-11T12:03:02.353Z,13.90
2017-04-11T12:04:03.096Z,13.60
2017-04-11T12:05:02.687Z,13.40
2017-04-11T12:06:02.207Z,13.50
2017-04-11T12:07:01.847Z,13.50
2017-04-11T12:08:01.475Z,13.50
2017-04-11T12:09:01.190Z,13.50
2017-04-11T12:10:01.784Z,13.30
2017-04-11T12:11:01.776Z,13.30
2017-04-11T12:12:01.379Z,13.30
2017-04-11T12:13:01.024Z,13.40
2017-04-11T12:14:01.342Z,13.50
2017-04-11T12:15:02.020Z,13.60
2017-04-11T12:16:01.578Z,13.40
2017-04-11T12:17:01.192Z,13.20
2017-04-11T12:18:00.859Z,13.10
2017-04-11T12:19:01.432Z,12.90
2017-04-11T12:20:01.149Z,13.00
2017-04-11T12:21:00.692Z,13.20
2017-04-11T12:22:00.264Z,13.30
2017-04-11T12:22:59.924Z,13.50
2017-04-11T12:24:00.239Z,13.60
2017-04-11T12:25:00.222Z,13.70
2017-04-11T12:25:59.834Z,13.70
2017-04-11T12:26:59.382Z,13.90
2017-04-11T12:27:59.010Z,13.60
2017-04-11T12:28:58.621Z,13.40
2017-04-11T12:29:58.608Z,13.30
2017-04-11T12:30:58.204Z,13.40
2017-04-11T12:31:57.740Z,13.30
2017-04-11T12:32:57.319Z,12.90
2017-04-11T12:33:56.943Z,13.00
2017-04-11T12:34:56.505Z,13.00
2017-04-11T12:35:56.139Z,12.80
2017-04-11T12:36:56.183Z,12.60
2017-04-11T12:37:55.787Z,12.50
2017-04-11T12:38:55.344Z,12.60
2017-04-11T12:39:54.955Z,12.70
2017-04-11T12:40:54.691Z,12.80
2017-04-11T12:41:54.367Z,13.00
2017-04-11T12:42:53.948Z,13.20
2017-04-11T12:43:53.584Z,13.50
2017-04-11T12:44:53.180Z,13.70
2017-04-11T12:45:53.223Z,13.70
2017-04-11T12:46:52.951Z,13.80
2017-04-11T12:47:52.630Z,13.90
2017-04-11T12:48:52.274Z,14.00
2017-04-11T12:49:51.839Z,14.00
2017-04-11T12:50:51.417Z,13.90
2017-04-11T12:51:50.987Z,13.90
2017-04-11T12:52:50.627Z,14.00
2017-04-11T12:53:50.311Z,13.90
2017-04-11T12:54:50.256Z,13.80
2017-04-11T12:55:50.186Z,13.70
2017-04-11T12:56:49.745Z,13.60
2017-04-11T12:57:49.293Z,13.60
2017-04-11T12:58:49.276Z,13.60
2017-04-11T12:59:48.829Z,13.70
2017-04-11T13:00:48.559Z,13.50
2017-04-11T13:01:48.113Z,13.40
2017-04-11T13:02:47.679Z,13.20
2017-04-11T13:03:47.357Z,13.10
2017-04-11T13:04:46.932Z,12.80
2017-04-11T13:05:46.492Z,12.90
2017-04-11T13:06:46.144Z,13.00
2017-04-11T13:07:45.742Z,13.10
2017-04-11T13:08:45.496Z,13.40
2017-04-11T13:09:45.058Z,13.50
2017-04-11T13:10:45.063Z,13.80
2017-04-11T13:11:44.648Z,14.10
2017-04-11T13:12:44.895Z,14.40
2017-04-11T13:13:44.707Z,14.40
2017-04-11T13:14:44.803Z,14.30
2017-04-11T13:15:44.521Z,14.20
2017-04-11T13:16:44.075Z,14.00
2017-04-11T13:17:44.392Z,13.90